Time;durP1;ratioP1;P1;durP2;ratioP2;P2;SDS_P1;SDS_P2;PMS_P1;PMS_P2;Temp;Humidity;BMP_temperature;BMP_pressure;BME280_temperature;BME280_humidity;BME280_pressure;Samples;Min_cycle;Max_cycle;Signal;HPM_P1;HPM_P2
2022/07/05 00:01:38;;;;;;;7.38;5.15;;;18.60;99.90;;;;;;5053121;28;20172;-82
2022/07/05 00:04:04;;;;;;;7.60;4.95;;;18.60;99.90;;;;;;5053169;28;20626;-82
2022/07/05 00:06:30;;;;;;;7.68;5.10;;;18.60;99.90;;;;;;5052887;28;20204;-82
2022/07/05 00:08:55;;;;;;;9.00;5.25;;;18.60;99.90;;;;;;5053590;28;20213;-82
2022/07/05 00:11:21;;;;;;;7.05;4.75;;;18.50;99.90;;;;;;5022180;28;20176;-82
2022/07/05 00:13:46;;;;;;;7.75;4.85;;;18.50;99.90;;;;;;5056423;28;20262;-83
2022/07/05 00:16:12;;;;;;;9.10;5.50;;;18.50;99.90;;;;;;5054891;28;20182;-82
2022/07/05 00:18:38;;;;;;;6.05;4.63;;;18.50;99.90;;;;;;5056333;28;20722;-82
2022/07/05 00:21:03;;;;;;;6.32;4.35;;;18.40;99.90;;;;;;5055063;28;20176;-82
2022/07/05 00:23:29;;;;;;;6.88;5.10;;;18.40;99.90;;;;;;5055027;28;20172;-82
2022/07/05 00:25:54;;;;;;;11.82;5.50;;;18.40;99.90;;;;;;5054883;28;20672;-82
2022/07/05 00:28:20;;;;;;;12.23;5.82;;;18.40;99.90;;;;;;5056198;28;20187;-82
2022/07/05 00:30:45;;;;;;;7.72;5.18;;;18.30;99.90;;;;;;5055055;28;20228;-83
2022/07/05 00:33:11;;;;;;;11.35;4.97;;;18.30;99.90;;;;;;5054817;28;20543;-83
2022/07/05 00:35:37;;;;;;;8.07;6.18;;;18.20;99.90;;;;;;5056155;28;20178;-82
2022/07/05 00:38:02;;;;;;;8.45;5.30;;;18.20;99.90;;;;;;5021628;28;20302;-82
2022/07/05 00:40:28;;;;;;;9.32;5.07;;;18.10;99.90;;;;;;5054767;28;20180;-82
2022/07/05 00:42:54;;;;;;;11.68;6.05;;;18.20;99.90;;;;;;5054544;28;20187;-82
2022/07/05 00:45:20;;;;;;;8.60;5.70;;;18.10;99.90;;;;;;5055741;28;20633;-82
2022/07/05 00:47:46;;;;;;;8.00;5.45;;;18.10;99.90;;;;;;5055817;28;20203;-82
2022/07/05 00:50:12;;;;;;;8.13;5.30;;;18.10;99.90;;;;;;5055196;28;20183;-84
2022/07/05 00:52:37;;;;;;;9.77;5.43;;;18.10;99.90;;;;;;5055572;28;20187;-82
2022/07/05 00:55:03;;;;;;;7.32;5.45;;;18.00;99.90;;;;;;5055952;28;20171;-82
2022/07/05 00:57:30;;;;;;;8.95;5.55;;;18.00;99.90;;;;;;5037810;28;20306;-82
2022/07/05 00:59:55;;;;;;;9.30;5.50;;;18.00;99.90;;;;;;5054547;28;20180;-82
2022/07/05 01:02:23;;;;;;;9.68;5.53;;;18.00;99.90;;;;;;5054133;28;20180;-82
2022/07/05 01:04:49;;;;;;;7.60;5.28;;;18.00;99.90;;;;;;5055625;28;20184;-82
2022/07/05 01:07:21;;;;;;;11.43;5.32;;;17.90;99.90;;;;;;5054173;28;20183;-83
2022/07/05 01:09:46;;;;;;;6.95;5.00;;;17.90;99.90;;;;;;5055641;28;20167;-82
2022/07/05 01:12:13;;;;;;;7.60;5.07;;;17.90;99.90;;;;;;5055597;28;20550;-82
2022/07/05 01:14:40;;;;;;;6.32;4.57;;;17.90;99.90;;;;;;5055141;28;20190;-82
2022/07/05 01:17:06;;;;;;;6.97;5.10;;;17.90;99.90;;;;;;5054310;28;20223;-82
2022/07/05 01:19:32;;;;;;;7.72;4.85;;;17.80;99.90;;;;;;5055104;28;20179;-82
2022/07/05 01:22:07;;;;;;;8.18;5.30;;;17.80;99.90;;;;;;5053458;28;20254;-82
2022/07/05 01:24:33;;;;;;;6.63;4.57;;;17.80;99.90;;;;;;5054999;28;20170;-82
2022/07/05 01:26:59;;;;;;;9.50;5.63;;;17.80;99.90;;;;;;5055204;28;20176;-82
2022/07/05 01:29:25;;;;;;;7.78;5.32;;;17.80;99.90;;;;;;5055047;28;20695;-82
2022/07/05 01:31:51;;;;;;;7.75;5.30;;;17.80;99.90;;;;;;5053886;28;20211;-82
2022/07/05 01:34:16;;;;;;;9.00;4.28;;;17.80;99.90;;;;;;5053700;28;20206;-82
2022/07/05 01:36:42;;;;;;;8.60;5.05;;;17.80;99.90;;;;;;5054385;28;20261;-82
2022/07/05 01:39:08;;;;;;;8.27;5.88;;;17.80;99.90;;;;;;5053676;28;20333;-82
2022/07/05 01:41:34;;;;;;;6.40;4.63;;;17.70;99.90;;;;;;5053569;28;20629;-82
2022/07/05 01:44:00;;;;;;;6.85;5.03;;;17.70;99.90;;;;;;5054912;28;20270;-82
2022/07/05 01:46:32;;;;;;;8.23;5.30;;;17.70;99.90;;;;;;5053628;28;20258;-83
2022/07/05 01:49:02;;;;;;;8.88;5.05;;;17.60;99.90;;;;;;5054787;28;20168;-82
2022/07/05 01:51:33;;;;;;;9.98;5.57;;;17.60;99.90;;;;;;5054478;28;20221;-82
2022/07/05 01:53:58;;;;;;;8.57;5.28;;;17.60;99.90;;;;;;5053811;28;20236;-82
2022/07/05 01:56:24;;;;;;;8.40;5.32;;;17.50;99.90;;;;;;5053236;28;20237;-82
2022/07/05 01:58:51;;;;;;;9.68;5.65;;;17.50;99.90;;;;;;5054597;28;20234;-82
2022/07/05 02:01:35;;;;;;;8.35;5.28;;;17.60;99.90;;;;;;5054464;28;20637;-82
2022/07/05 02:04:01;;;;;;;5.95;4.72;;;17.50;99.90;;;;;;5054600;28;20271;-82
2022/07/05 02:06:27;;;;;;;7.60;5.28;;;17.50;99.90;;;;;;5053025;28;20195;-82
2022/07/05 02:08:52;;;;;;;8.05;5.47;;;17.50;99.90;;;;;;5054249;28;20183;-82
2022/07/05 02:11:18;;;;;;;9.43;5.80;;;17.50;99.90;;;;;;5052818;28;20203;-82
2022/07/05 02:13:43;;;;;;;8.77;5.88;;;17.50;99.90;;;;;;5054077;28;20183;-82
2022/07/05 02:16:09;;;;;;;8.50;5.07;;;17.50;99.90;;;;;;5053837;28;20180;-82
2022/07/05 02:18:34;;;;;;;9.20;5.47;;;17.60;99.90;;;;;;5035979;28;20235;-82
2022/07/05 02:21:00;;;;;;;5.93;4.78;;;17.60;99.90;;;;;;5054146;28;20625;-82
2022/07/05 02:23:26;;;;;;;10.32;4.78;;;17.60;99.90;;;;;;5053588;28;20195;-83
2022/07/05 02:25:52;;;;;;;8.25;5.13;;;17.60;99.90;;;;;;5052815;28;20327;-82
2022/07/05 02:28:17;;;;;;;6.68;4.97;;;17.60;99.90;;;;;;5053984;28;20191;-81
2022/07/05 02:30:43;;;;;;;8.68;5.63;;;17.60;99.90;;;;;;5052277;28;20199;-82
2022/07/05 02:33:08;;;;;;;8.70;4.45;;;17.60;99.90;;;;;;5053767;28;20208;-82
2022/07/05 02:35:34;;;;;;;5.90;4.22;;;17.60;99.90;;;;;;5052373;28;20218;-82
2022/07/05 02:37:59;;;;;;;7.78;4.63;;;17.60;99.90;;;;;;5052647;28;20576;-82
2022/07/05 02:40:25;;;;;;;7.95;4.88;;;17.60;99.90;;;;;;5035752;28;20172;-82
2022/07/05 02:42:50;;;;;;;8.02;5.15;;;17.60;99.90;;;;;;5053568;28;20633;-82
2022/07/05 02:45:16;;;;;;;6.40;5.05;;;17.60;99.90;;;;;;5052268;28;20258;-82
2022/07/05 02:47:42;;;;;;;7.53;4.93;;;17.60;99.90;;;;;;5053094;28;20593;-82
2022/07/05 02:50:09;;;;;;;6.30;4.47;;;17.70;99.90;;;;;;5053528;28;20176;-82
2022/07/05 02:52:35;;;;;;;5.57;4.28;;;17.70;99.90;;;;;;5052253;28;20233;-82
2022/07/05 02:55:04;;;;;;;7.47;4.70;;;17.70;99.90;;;;;;5053860;28;20168;-82
2022/07/05 02:57:30;;;;;;;8.15;5.20;;;17.80;99.90;;;;;;5053276;28;20218;-84
2022/07/05 02:59:56;;;;;;;6.72;4.43;;;17.90;99.90;;;;;;5053686;28;20175;-83
2022/07/05 03:02:23;;;;;;;7.40;5.15;;;18.00;99.90;;;;;;5053640;28;20175;-83
2022/07/05 03:04:49;;;;;;;8.45;4.25;;;18.00;99.90;;;;;;5053501;28;20191;-83
2022/07/05 03:07:15;;;;;;;7.05;4.72;;;18.10;99.90;;;;;;5053578;28;20621;-83
2022/07/05 03:09:40;;;;;;;8.55;4.55;;;18.20;99.90;;;;;;5051939;28;20681;-84
2022/07/05 03:12:06;;;;;;;5.25;4.53;;;18.40;99.90;;;;;;5053264;28;20192;-83
2022/07/05 03:14:32;;;;;;;7.15;5.25;;;18.40;99.90;;;;;;5051746;28;20183;-86
2022/07/05 03:16:58;;;;;;;6.93;4.53;;;18.60;99.90;;;;;;5054074;28;20593;-84
2022/07/05 03:19:23;;;;;;;12.02;5.75;;;18.70;99.90;;;;;;5058313;28;20628;-83
2022/07/05 03:21:49;;;;;;;5.80;4.78;;;18.70;99.90;;;;;;5058069;28;20690;-83
2022/07/05 03:24:15;;;;;;;9.13;4.90;;;;;;;;;;5058360;28;20172;-83
2022/07/05 03:26:41;;;;;;;8.63;5.22;;;18.70;99.90;;;;;;5058832;28;20171;-85
2022/07/05 03:29:07;;;;;;;9.98;5.28;;;18.70;99.90;;;;;;5077579;28;20175;-83
2022/07/05 03:31:33;;;;;;;10.35;5.55;;;18.80;99.90;;;;;;5076972;28;20171;-84
2022/07/05 03:33:58;;;;;;;9.38;5.40;;;18.80;99.90;;;;;;5070504;28;20180;-83
2022/07/05 03:36:24;;;;;;;7.13;4.95;;;18.90;99.90;;;;;;5054834;28;20645;-83
2022/07/05 03:38:49;;;;;;;6.10;4.88;;;19.00;99.90;;;;;;5053795;28;20301;-84
2022/07/05 03:41:15;;;;;;;10.82;5.63;;;19.10;99.90;;;;;;5037889;28;20195;-82
2022/07/05 03:43:41;;;;;;;7.82;5.53;;;19.10;99.90;;;;;;5074240;28;20184;-87
2022/07/05 03:46:06;;;;;;;9.43;5.78;;;19.20;99.90;;;;;;5059415;28;20188;-84
2022/07/05 03:48:33;;;;;;;11.45;6.03;;;19.40;99.90;;;;;;5080653;28;20172;-84
2022/07/05 03:50:59;;;;;;;6.80;4.88;;;19.40;99.90;;;;;;5066567;28;20196;-84
2022/07/05 03:53:25;;;;;;;8.02;5.63;;;19.40;99.90;;;;;;5051940;28;20273;-83
2022/07/05 03:55:50;;;;;;;9.73;5.65;;;19.50;99.90;;;;;;5055375;28;20544;-83
2022/07/05 03:58:16;;;;;;;12.35;7.55;;;19.50;99.90;;;;;;5053746;28;20215;-84
2022/07/05 04:00:41;;;;;;;11.63;6.10;;;19.60;99.90;;;;;;5050223;28;20607;-85
2022/07/05 04:03:07;;;;;;;9.18;6.38;;;19.60;99.90;;;;;;5050298;28;20198;-84
2022/07/05 04:05:32;;;;;;;9.20;6.22;;;19.70;99.90;;;;;;5054149;28;20191;-84
2022/07/05 04:07:58;;;;;;;15.10;6.15;;;19.70;99.90;;;;;;5053182;28;20242;-84
2022/07/05 04:10:24;;;;;;;9.70;6.00;;;19.80;99.90;;;;;;5054684;28;20728;-83
2022/07/05 04:12:50;;;;;;;9.32;6.22;;;19.80;99.90;;;;;;5054140;28;20183;-84
2022/07/05 04:15:16;;;;;;;9.30;5.75;;;19.80;99.90;;;;;;5055068;28;20282;-84
2022/07/05 04:17:49;;;;;;;11.07;5.50;;;19.90;99.90;;;;;;5053165;28;20212;-84
2022/07/05 04:20:15;;;;;;;10.02;6.18;;;19.90;99.90;;;;;;5054434;28;20257;-83
2022/07/05 04:22:41;;;;;;;7.00;5.05;;;19.80;99.90;;;;;;5052694;28;20652;-83
2022/07/05 04:25:16;;;;;;;7.20;5.60;;;19.70;99.90;;;;;;5040536;28;20189;-83
2022/07/05 04:27:42;;;;;;;6.85;4.97;;;19.70;99.90;;;;;;5034179;28;20657;-82
2022/07/05 04:30:09;;;;;;;7.65;5.20;;;19.70;99.90;;;;;;5050806;28;20207;-83
2022/07/05 04:32:35;;;;;;;7.55;4.82;;;19.70;99.90;;;;;;5052375;28;20187;-83
2022/07/05 04:35:01;;;;;;;7.90;5.53;;;19.80;99.90;;;;;;5053446;28;20254;-84
2022/07/05 04:37:27;;;;;;;11.10;5.35;;;19.80;99.90;;;;;;5054221;28;20788;-82
2022/07/05 04:39:52;;;;;;;8.98;5.80;;;19.80;99.90;;;;;;5051179;28;20192;-85
2022/07/05 04:42:18;;;;;;;7.28;5.63;;;19.70;99.90;;;;;;5042009;28;20682;-82
2022/07/05 04:44:44;;;;;;;9.43;6.03;;;19.70;99.90;;;;;;5051426;28;20194;-84
2022/07/05 04:47:09;;;;;;;11.07;5.20;;;19.70;99.90;;;;;;5036272;28;20629;-84
2022/07/05 04:49:35;;;;;;;13.73;6.47;;;19.80;99.90;;;;;;5053074;28;20188;-83
2022/07/05 04:52:00;;;;;;;8.93;5.78;;;19.70;99.90;;;;;;5043764;28;20184;-85
2022/07/05 04:54:26;;;;;;;9.20;6.28;;;19.70;99.90;;;;;;5046524;28;20774;-83
2022/07/05 04:56:52;;;;;;;7.75;6.13;;;19.70;99.90;;;;;;5038736;28;20188;-83
2022/07/05 04:59:17;;;;;;;11.02;6.18;;;19.70;99.90;;;;;;5044023;28;20192;-81
2022/07/05 05:01:43;;;;;;;10.70;6.15;;;19.70;99.90;;;;;;5043000;28;20229;-83
2022/07/05 05:04:08;;;;;;;9.80;6.72;;;19.60;99.90;;;;;;5048697;28;20184;-83
2022/07/05 05:06:34;;;;;;;11.70;6.55;;;19.60;99.90;;;;;;5039374;28;20526;-83
2022/07/05 05:08:59;;;;;;;8.60;6.38;;;19.60;99.90;;;;;;5043091;28;20203;-83
2022/07/05 05:11:25;;;;;;;11.15;6.38;;;19.70;99.90;;;;;;5042375;28;20696;-84
2022/07/05 05:13:50;;;;;;;10.23;7.50;;;19.70;99.90;;;;;;5055838;28;20195;-82
2022/07/05 05:16:16;;;;;;;10.02;6.35;;;19.70;99.90;;;;;;5054002;28;20544;-83
2022/07/05 05:18:42;;;;;;;9.50;6.65;;;19.70;99.90;;;;;;5056268;28;20279;-82
2022/07/05 05:21:07;;;;;;;10.23;6.70;;;19.80;99.90;;;;;;5059212;28;20676;-82
2022/07/05 05:23:33;;;;;;;12.00;7.38;;;19.80;99.90;;;;;;5060690;28;20245;-82
2022/07/05 05:25:58;;;;;;;10.50;6.20;;;19.90;99.90;;;;;;5037920;28;20175;-81
2022/07/05 05:28:24;;;;;;;9.02;6.20;;;19.90;99.90;;;;;;5055768;28;20279;-81
2022/07/05 05:30:50;;;;;;;12.57;7.97;;;20.00;99.90;;;;;;5058577;28;20180;-83
2022/07/05 05:33:15;;;;;;;9.75;7.47;;;20.10;99.90;;;;;;5060060;28;20651;-83
2022/07/05 05:35:41;;;;;;;10.60;6.95;;;20.20;99.90;;;;;;5055244;28;20546;-82
2022/07/05 05:38:06;;;;;;;10.32;7.65;;;20.20;99.90;;;;;;5054385;28;20215;-83
2022/07/05 05:40:37;;;;;;;10.57;7.80;;;20.20;99.90;;;;;;5055012;28;20204;-84
2022/07/05 05:43:03;;;;;;;9.63;6.57;;;20.30;99.90;;;;;;5055038;28;20655;-83
2022/07/05 05:45:29;;;;;;;10.80;7.32;;;20.30;99.90;;;;;;5042802;28;20211;-83
2022/07/05 05:47:57;;;;;;;9.00;6.78;;;20.50;99.90;;;;;;5052334;28;20553;-83
2022/07/05 05:50:42;;;;;;;11.13;6.97;;;20.50;99.90;;;;;;5047360;28;20168;-82
2022/07/05 05:53:08;;;;;;;11.38;7.78;;;20.60;99.90;;;;;;5042134;28;20350;-84
2022/07/05 05:55:34;;;;;;;10.82;6.90;;;20.70;99.90;;;;;;5053148;28;20648;-83
2022/07/05 05:58:12;;;;;;;13.18;7.03;;;20.80;99.90;;;;;;5053357;28;20219;-83
2022/07/05 06:00:38;;;;;;;9.73;5.97;;;21.00;99.90;;;;;;5055079;28;20754;-82
2022/07/05 06:03:03;;;;;;;10.85;5.82;;;21.10;99.90;;;;;;5052899;28;20274;-83
2022/07/05 06:05:29;;;;;;;8.52;5.70;;;21.20;99.90;;;;;;5036657;28;20180;-83
2022/07/05 06:07:55;;;;;;;9.95;6.38;;;21.40;99.90;;;;;;5054984;28;20183;-84
2022/07/05 06:10:27;;;;;;;9.05;5.88;;;21.60;99.90;;;;;;5053658;28;20182;-83
2022/07/05 06:12:56;;;;;;;7.13;5.47;;;21.70;99.90;;;;;;5054561;28;20172;-84
2022/07/05 06:15:21;;;;;;;8.52;5.25;;;21.80;99.90;;;;;;5057902;28;20273;-83
2022/07/05 06:17:48;;;;;;;6.82;4.95;;;21.90;99.90;;;;;;5059018;28;20255;-82
2022/07/05 06:20:16;;;;;;;9.00;5.68;;;21.90;99.90;;;;;;5053289;28;20191;-83
2022/07/05 06:22:42;;;;;;;7.72;5.03;;;22.00;99.90;;;;;;5043913;28;20621;-83
2022/07/05 06:25:09;;;;;;;5.68;4.18;;;22.00;99.90;;;;;;5040279;28;20179;-83
2022/07/05 06:27:46;;;;;;;5.30;4.07;;;22.00;99.90;;;;;;5041279;28;20176;-83
2022/07/05 06:30:15;;;;;;;4.43;3.65;;;22.00;99.90;;;;;;5040992;28;20543;-83
2022/07/05 06:32:41;;;;;;;8.55;4.45;;;22.00;99.90;;;;;;5042145;28;20180;-82
2022/07/05 06:35:08;;;;;;;6.03;4.75;;;22.00;99.90;;;;;;5041623;28;20177;-83
2022/07/05 06:37:44;;;;;;;6.93;3.92;;;22.00;99.90;;;;;;5023913;28;20204;-83
2022/07/05 06:40:11;;;;;;;6.80;4.32;;;22.00;99.90;;;;;;5042481;28;20182;-82
2022/07/05 06:42:37;;;;;;;8.15;5.47;;;21.90;99.90;;;;;;5040121;28;20196;-84
2022/07/05 06:45:05;;;;;;;5.85;4.65;;;21.90;99.90;;;;;;5039162;28;20535;-83
2022/07/05 06:47:31;;;;;;;6.28;4.18;;;21.90;99.90;;;;;;5024508;28;20184;-83
2022/07/05 06:49:58;;;;;;;7.03;5.28;;;21.90;99.90;;;;;;5040546;28;20176;-84
2022/07/05 06:52:24;;;;;;;6.50;4.78;;;21.90;99.90;;;;;;5043063;28;20186;-83
2022/07/05 06:54:49;;;;;;;6.47;4.72;;;21.90;99.90;;;;;;5039718;28;20231;-83
2022/07/05 06:57:19;;;;;;;6.53;5.28;;;21.90;99.90;;;;;;5045009;28;20673;-84
2022/07/05 06:59:45;;;;;;;6.88;4.63;;;22.00;99.90;;;;;;5042136;28;20181;-83
2022/07/05 07:02:10;;;;;;;6.80;5.07;;;22.10;99.90;;;;;;5045243;28;20207;-83
2022/07/05 07:04:36;;;;;;;8.52;5.07;;;22.10;99.90;;;;;;5040161;28;20235;-83
2022/07/05 07:07:02;;;;;;;6.97;4.90;;;22.10;99.90;;;;;;5046669;28;20194;-83
2022/07/05 07:09:27;;;;;;;6.60;4.90;;;22.10;99.90;;;;;;5051592;28;20180;-83
2022/07/05 07:11:53;;;;;;;7.00;5.05;;;22.20;99.90;;;;;;5051222;28;20215;-82
2022/07/05 07:14:18;;;;;;;7.97;5.78;;;22.20;99.90;;;;;;5034756;28;20179;-82
2022/07/05 07:16:44;;;;;;;6.65;4.55;;;22.30;99.90;;;;;;5052848;28;20263;-84
2022/07/05 07:19:10;;;;;;;6.25;4.45;;;22.30;99.90;;;;;;5052864;28;20265;-84
2022/07/05 07:21:36;;;;;;;6.35;4.80;;;22.30;99.90;;;;;;5055690;28;20188;-83
2022/07/05 07:24:01;;;;;;;6.32;4.93;;;22.30;99.90;;;;;;5056926;28;20633;-84
2022/07/05 07:26:27;;;;;;;6.45;5.13;;;22.40;99.90;;;;;;5055680;28;20191;-83
2022/07/05 07:28:53;;;;;;;8.68;4.72;;;22.30;99.90;;;;;;5055116;28;20641;-85
2022/07/05 07:31:18;;;;;;;5.25;4.32;;;22.40;99.90;;;;;;5039104;28;20259;-84
2022/07/05 07:33:44;;;;;;;5.65;4.45;;;22.50;99.90;;;;;;5035980;28;20191;-84
2022/07/05 07:36:10;;;;;;;7.65;4.57;;;22.60;99.90;;;;;;5035819;28;20219;-83
2022/07/05 07:38:35;;;;;;;6.30;4.68;;;22.70;99.90;;;;;;5036820;28;20704;-83
2022/07/05 07:41:01;;;;;;;7.15;4.45;;;22.80;99.90;;;;;;5038368;28;20183;-82
2022/07/05 07:43:27;;;;;;;5.88;3.80;;;23.00;99.90;;;;;;5055585;28;20207;-82
2022/07/05 07:45:53;;;;;;;7.40;4.40;;;23.20;99.90;;;;;;5059600;28;20203;-83
2022/07/05 07:48:20;;;;;;;10.38;3.88;;;23.50;99.90;;;;;;5027895;28;20183;-81
2022/07/05 07:50:46;;;;;;;5.93;4.35;;;23.60;99.90;;;;;;5059181;28;20648;-82
2022/07/05 07:53:11;;;;;;;7.82;5.53;;;23.90;99.90;;;;;;5060165;28;20227;-83
2022/07/05 07:55:37;;;;;;;4.88;3.70;;;24.20;99.90;;;;;;5059296;28;20184;-82
2022/07/05 07:58:03;;;;;;;4.45;3.20;;;24.40;99.90;;;;;;5059037;28;20211;-83
2022/07/05 08:00:29;;;;;;;3.42;2.80;;;24.70;99.90;;;;;;5056646;28;20176;-83
2022/07/05 08:02:55;;;;;;;3.85;3.45;;;24.90;99.90;;;;;;5056184;28;20180;-83
2022/07/05 08:05:20;;;;;;;3.88;2.78;;;25.10;99.90;;;;;;5055609;28;20217;-84
2022/07/05 08:07:46;;;;;;;5.25;2.92;;;25.20;99.90;;;;;;5056042;28;20207;-83
2022/07/05 08:10:11;;;;;;;3.88;3.47;;;25.30;99.90;;;;;;5059458;28;20180;-83
2022/07/05 08:12:37;;;;;;;4.25;2.83;;;25.40;99.90;;;;;;5059161;28;20184;-83
2022/07/05 08:15:03;;;;;;;2.88;2.55;;;25.50;99.90;;;;;;5056923;28;20234;-83
2022/07/05 08:17:28;;;;;;;4.28;2.35;;;25.70;99.90;;;;;;5038808;28;20208;-84
2022/07/05 08:22:38;;;;;;;3.17;2.88;;;26.00;99.90;;;;;;5056364;28;20179;-84
2022/07/05 08:25:04;;;;;;;4.25;3.05;;;26.00;99.90;;;;;;5057154;28;20176;-84
2022/07/05 08:27:30;;;;;;;3.15;2.67;;;26.00;99.90;;;;;;5057958;28;20186;-85
2022/07/05 08:29:56;;;;;;;3.63;2.67;;;25.80;99.90;;;;;;5055695;28;20179;-84
2022/07/05 08:32:21;;;;;;;3.15;2.58;;;25.80;99.90;;;;;;5055064;28;20697;-84
2022/07/05 08:34:47;;;;;;;3.42;2.72;;;25.70;99.90;;;;;;5055350;28;20641;-84
2022/07/05 08:37:13;;;;;;;2.40;2.15;;;25.70;99.90;;;;;;5055182;28;20294;-84
2022/07/05 08:39:39;;;;;;;3.03;2.63;;;25.90;99.90;;;;;;5038207;28;20288;-84
2022/07/05 08:42:10;;;;;;;3.10;2.42;;;26.20;99.90;;;;;;5056077;28;20176;-84
2022/07/05 08:44:38;;;;;;;2.75;2.50;;;26.50;99.90;;;;;;5055900;28;20164;-85
2022/07/05 08:47:09;;;;;;;5.35;2.47;;;26.80;99.90;;;;;;5054644;28;20255;-85
2022/07/05 08:49:37;;;;;;;2.72;2.50;;;27.00;98.30;;;;;;5055786;28;20175;-84
2022/07/05 08:52:06;;;;;;;3.20;2.78;;;27.00;97.30;;;;;;5054506;28;20276;-84
2022/07/05 08:54:32;;;;;;;3.20;2.80;;;26.90;96.10;;;;;;5054565;28;20584;-84
2022/07/05 08:56:58;;;;;;;3.30;2.30;;;26.70;95.30;;;;;;5021618;28;20180;-84
2022/07/05 08:59:23;;;;;;;3.17;2.70;;;26.40;94.30;;;;;;5055565;28;20176;-85
2022/07/05 09:01:49;;;;;;;2.97;2.40;;;26.30;96.40;;;;;;5055197;28;20218;-85
2022/07/05 09:04:17;;;;;;;5.40;2.22;;;26.30;99.40;;;;;;5054319;28;20206;-84
2022/07/05 09:06:46;;;;;;;2.92;2.50;;;26.40;98.80;;;;;;5054036;28;20530;-83
2022/07/05 09:09:16;;;;;;;3.15;2.83;;;26.40;99.00;;;;;;5056028;28;20220;-84
2022/07/05 09:11:43;;;;;;;2.85;2.42;;;26.40;99.20;;;;;;5054008;28;20172;-84
2022/07/05 09:14:25;;;;;;;3.13;2.63;;;26.30;98.10;;;;;;5053873;28;20176;-84
2022/07/05 09:16:51;;;;;;;4.80;2.35;;;26.20;99.40;;;;;;5055463;28;20172;-84
2022/07/05 09:19:17;;;;;;;2.40;2.13;;;26.10;99.20;;;;;;5054108;28;20187;-84
2022/07/05 09:21:43;;;;;;;2.35;2.15;;;26.00;99.70;;;;;;5054948;28;20691;-84
2022/07/05 09:24:11;;;;;;;3.08;2.58;;;25.90;99.90;;;;;;5054986;28;20180;-83
2022/07/05 09:26:39;;;;;;;2.95;2.40;;;25.90;99.90;;;;;;5060458;28;20184;-84
2022/07/05 09:29:10;;;;;;;3.63;2.35;;;25.80;99.90;;;;;;5069358;28;20248;-84
2022/07/05 09:31:39;;;;;;;3.28;2.45;;;25.60;98.80;;;;;;5065819;28;20172;-84
2022/07/05 09:34:12;;;;;;;3.63;2.80;;;25.50;99.90;;;;;;5061872;28;20269;-84
2022/07/05 09:36:58;;;;;;;3.58;3.20;;;25.40;99.90;;;;;;5076536;28;20164;-84
2022/07/05 09:39:30;;;;;;;4.43;2.97;;;25.30;99.90;;;;;;5079291;28;20195;-84
2022/07/05 09:42:31;;;;;;;4.05;3.35;;;25.30;99.90;;;;;;5078145;28;20173;-84
2022/07/05 09:44:57;;;;;;;3.22;2.90;;;25.30;99.90;;;;;;5033996;28;20716;-83
2022/07/05 09:47:26;;;;;;;5.22;3.17;;;25.30;99.90;;;;;;5052345;28;20226;-83
2022/07/05 09:49:55;;;;;;;5.25;2.60;;;25.30;99.90;;;;;;5070993;28;20160;-84
2022/07/05 09:52:29;;;;;;;3.60;2.90;;;25.30;99.90;;;;;;5079090;28;20231;-84
2022/07/05 09:55:07;;;;;;;6.40;3.40;;;25.30;99.90;;;;;;5078947;28;20175;-84
2022/07/05 09:57:35;;;;;;;3.72;3.13;;;25.30;99.90;;;;;;5056769;28;20686;-84
2022/07/05 10:00:09;;;;;;;4.95;3.08;;;25.30;99.90;;;;;;5038260;28;20180;-83
2022/07/05 10:02:35;;;;;;;3.35;3.05;;;25.30;99.90;;;;;;5056045;28;20525;-84
2022/07/05 10:05:16;;;;;;;3.92;3.40;;;25.30;99.90;;;;;;5055571;28;20190;-84
2022/07/05 10:07:44;;;;;;;8.13;5.15;;;25.30;99.90;;;;;;5055354;28;20217;-83
2022/07/05 10:10:15;;;;;;;3.63;3.22;;;25.20;99.90;;;;;;5054859;28;20596;-83
2022/07/05 10:12:45;;;;;;;3.35;2.88;;;25.20;99.90;;;;;;5055758;28;20251;-83
2022/07/05 10:15:21;;;;;;;3.40;2.88;;;25.20;99.90;;;;;;5055485;28;20195;-83
2022/07/05 10:17:58;;;;;;;4.60;3.30;;;25.10;99.90;;;;;;5055561;28;20211;-83
2022/07/05 10:20:28;;;;;;;4.90;3.63;;;25.10;99.90;;;;;;5056087;28;20144;-83
2022/07/05 10:22:55;;;;;;;4.05;3.20;;;25.10;99.90;;;;;;5054850;28;20179;-83
2022/07/05 10:25:22;;;;;;;4.22;3.40;;;25.00;99.90;;;;;;5054749;28;20609;-83
2022/07/05 10:27:48;;;;;;;4.70;3.47;;;25.00;99.90;;;;;;5054701;28;20191;-83
2022/07/05 10:30:15;;;;;;;4.65;3.67;;;25.00;99.90;;;;;;5036854;28;20257;-83
2022/07/05 10:32:42;;;;;;;6.10;3.42;;;24.90;99.90;;;;;;5054260;28;20176;-83
2022/07/05 10:35:09;;;;;;;3.90;3.25;;;24.80;99.90;;;;;;5053899;28;20184;-83
2022/07/05 10:37:35;;;;;;;5.18;3.58;;;24.80;99.90;;;;;;5053995;28;20206;-83
2022/07/05 10:40:03;;;;;;;5.13;3.97;;;24.70;99.90;;;;;;5053801;28;20195;-83
2022/07/05 10:42:45;;;;;;;4.75;3.10;;;24.70;99.90;;;;;;5054360;28;20255;-83
2022/07/05 10:45:30;;;;;;;12.20;3.30;;;24.70;99.90;;;;;;5053671;28;20190;-83
2022/07/05 10:48:16;;;;;;;3.95;3.25;;;24.70;99.90;;;;;;5054433;28;20237;-83
2022/07/05 10:50:55;;;;;;;3.70;3.20;;;24.70;99.90;;;;;;5052520;28;20230;-84
2022/07/05 10:53:21;;;;;;;5.75;4.13;;;24.60;99.90;;;;;;5052377;28;20731;-83
2022/07/05 10:55:55;;;;;;;5.55;3.70;;;24.60;99.90;;;;;;5053135;28;20191;-84
2022/07/05 10:58:30;;;;;;;5.25;3.65;;;24.50;99.90;;;;;;5052327;28;20290;-83
2022/07/05 11:01:17;;;;;;;5.22;4.10;;;24.50;99.90;;;;;;5052333;28;20258;-83
2022/07/05 11:04:02;;;;;;;4.75;4.18;;;24.40;99.90;;;;;;5052682;28;20180;-83
2022/07/05 11:06:29;;;;;;;5.60;3.72;;;24.50;99.90;;;;;;5052860;28;20539;-83
2022/07/05 11:09:04;;;;;;;7.00;3.58;;;24.40;99.90;;;;;;5052064;28;20176;-83
2022/07/05 11:11:41;;;;;;;6.13;4.32;;;24.40;99.90;;;;;;5052360;28;20179;-83
2022/07/05 11:14:19;;;;;;;7.15;4.28;;;24.40;99.90;;;;;;5053698;28;20186;-83
2022/07/05 11:16:45;;;;;;;6.60;4.03;;;24.30;99.90;;;;;;5052267;28;20579;-84
2022/07/05 11:19:16;;;;;;;8.05;4.88;;;24.20;99.90;;;;;;5035770;28;20294;-83
2022/07/05 11:22:03;;;;;;;8.43;4.00;;;24.20;99.90;;;;;;5053102;28;20526;-83
2022/07/05 11:24:31;;;;;;;6.55;4.55;;;24.10;99.90;;;;;;5052892;28;20175;-84
2022/07/05 11:27:02;;;;;;;4.63;3.78;;;24.00;99.90;;;;;;5052989;28;20258;-83
2022/07/05 11:29:44;;;;;;;5.75;4.15;;;24.00;99.90;;;;;;5035677;28;20273;-83
2022/07/05 11:32:13;;;;;;;6.15;4.47;;;23.90;99.90;;;;;;5053450;28;20252;-83
2022/07/05 11:34:40;;;;;;;4.15;3.53;;;23.80;99.90;;;;;;5052854;28;20179;-83
2022/07/05 11:37:24;;;;;;;5.65;3.60;;;23.80;99.90;;;;;;5045444;28;20176;-84
2022/07/05 11:40:10;;;;;;;6.30;4.45;;;23.70;99.90;;;;;;5041415;28;20263;-84
2022/07/05 11:42:46;;;;;;;4.82;3.53;;;23.80;99.90;;;;;;5040644;28;20207;-83
2022/07/05 11:45:13;;;;;;;6.22;4.28;;;23.80;99.90;;;;;;5040829;28;20160;-83
2022/07/05 11:47:39;;;;;;;5.88;3.97;;;24.00;99.90;;;;;;5047576;28;20188;-84
2022/07/05 11:50:05;;;;;;;7.43;3.75;;;24.10;99.90;;;;;;5034148;28;20211;-85
2022/07/05 11:52:32;;;;;;;6.03;3.90;;;24.40;99.90;;;;;;5038363;28;20641;-85
2022/07/05 11:55:17;;;;;;;4.90;3.63;;;24.40;99.90;;;;;;5043013;28;20503;-85
2022/07/05 11:57:50;;;;;;;4.80;3.80;;;24.50;99.90;;;;;;5041852;28;20281;-86
2022/07/05 12:00:26;;;;;;;4.63;3.47;;;24.50;99.90;;;;;;5044765;28;20182;-85
2022/07/05 12:02:52;;;;;;;4.43;3.65;;;24.50;99.90;;;;;;5041849;28;20185;-85
2022/07/05 12:05:18;;;;;;;5.82;3.65;;;24.40;99.90;;;;;;5030524;28;20524;-86
2022/07/05 12:07:52;;;;;;;4.40;3.47;;;24.40;99.90;;;;;;5052991;28;20278;-86
2022/07/05 12:13:06;;;;;;;3.60;2.85;;;24.40;99.90;;;;;;5053576;28;20175;-86
2022/07/05 12:15:31;;;;;;;6.70;2.90;;;24.40;99.90;;;;;;5054708;28;20633;-87
2022/07/05 12:18:04;;;;;;;3.50;2.97;;;24.40;99.90;;;;;;5054768;28;20257;-86
2022/07/05 12:20:36;;;;;;;3.88;3.03;;;24.40;99.90;;;;;;5054789;28;20637;-85
2022/07/05 12:23:03;;;;;;;4.53;3.25;;;24.40;99.90;;;;;;5019293;28;20180;-86
2022/07/05 12:25:31;;;;;;;4.20;2.65;;;24.50;99.90;;;;;;5053646;28;20663;-85
2022/07/05 12:27:58;;;;;;;5.05;2.70;;;24.50;99.90;;;;;;5054833;28;20184;-84
2022/07/05 12:30:25;;;;;;;4.38;3.28;;;24.50;99.90;;;;;;5052431;28;20179;-85
2022/07/05 12:33:09;;;;;;;5.47;3.22;;;24.40;99.90;;;;;;5045278;28;20185;-86
2022/07/05 12:35:42;;;;;;;5.70;3.53;;;24.50;99.90;;;;;;5037916;28;20178;-85
2022/07/05 12:38:28;;;;;;;3.05;2.65;;;24.40;99.90;;;;;;5044879;28;20210;-84
2022/07/05 12:40:58;;;;;;;4.38;3.38;;;24.30;99.90;;;;;;5039968;28;20177;-85
2022/07/05 12:43:24;;;;;;;3.95;3.33;;;24.30;99.90;;;;;;5043147;28;20208;-85
2022/07/05 12:46:00;;;;;;;5.55;3.40;;;24.40;99.90;;;;;;5051395;28;20210;-86
2022/07/05 12:48:39;;;;;;;6.03;3.42;;;24.20;99.90;;;;;;5049665;28;20257;-86
2022/07/05 12:51:09;;;;;;;4.53;3.63;;;24.10;99.90;;;;;;5051118;28;20168;-86
2022/07/05 12:59:12;;;;;;;4.00;3.60;;;23.70;99.90;;;;;;5049686;28;20269;-85
2022/07/05 13:01:40;;;;;;;4.05;3.22;;;23.70;99.90;;;;;;5053524;28;20231;-84